TVF59RG LJLJ-LFPO
Flight info
| Callsign | TVF59RG |
|---|---|
| Flight time | 1h 35m |
| Altitude | 38000 |
| Route | MODRO1Z MODRO DCT RIFEN DCT OSLOP DCT BADOP DCT VIC/N0459F370 DCT VADIK DCT ADOSA/N0462F360 DCT PUNSA DCT UNKIR DCT DJL |
| Aircraft | B738/M-SDFGHIJ1RWXY/LB1 |
Departure
| Time | 2026-05-05 18:26 |
|---|---|
| Airport | Ljubljana Jože Pučnik Airport (LJLJ) |
Arrival
| Time | 2026-05-05 20:01 |
|---|---|
| Airport | Paris-Orly Airport (LFPO) |
| Time | Latitude | Longitude | Altitude | Speed | Heading |
|---|---|---|---|---|---|
| 2026-05-05 17:23 | 46.23027 | 14.45419 | 1257 ft | 0 kts | 36° |
| 2026-05-05 18:17 | 46.23012 | 14.45404 | 1267 ft | 4 kts | 36° |
| 2026-05-05 18:17 | 46.22993 | 14.45384 | 1263 ft | 4 kts | 47° |
| 2026-05-05 18:17 | 46.22985 | 14.45355 | 1267 ft | 4 kts | 110° |
| 2026-05-05 18:17 | 46.22995 | 14.45328 | 1266 ft | 1 kts | 127° |
| 2026-05-05 18:18 | 46.22998 | 14.45323 | 1264 ft | 0 kts | 127° |
| 2026-05-05 18:19 | 46.22997 | 14.45325 | 1266 ft | 1 kts | 127° |
| 2026-05-05 18:20 | 46.22994 | 14.45330 | 1262 ft | 2 kts | 127° |
| 2026-05-05 18:20 | 46.22981 | 14.45355 | 1268 ft | 8 kts | 127° |
| 2026-05-05 18:20 | 46.22928 | 14.45399 | 1263 ft | 10 kts | 200° |
| 2026-05-05 18:20 | 46.22871 | 14.45343 | 1260 ft | 12 kts | 216° |
| 2026-05-05 18:21 | 46.22801 | 14.45378 | 1263 ft | 14 kts | 126° |
| 2026-05-05 18:21 | 46.22731 | 14.45515 | 1260 ft | 21 kts | 127° |
| 2026-05-05 18:21 | 46.22638 | 14.45696 | 1255 ft | 24 kts | 126° |
| 2026-05-05 18:21 | 46.22555 | 14.45859 | 1251 ft | 23 kts | 127° |
| 2026-05-05 18:22 | 46.22462 | 14.46039 | 1247 ft | 22 kts | 127° |
| 2026-05-05 18:22 | 46.22372 | 14.46214 | 1244 ft | 21 kts | 126° |
| 2026-05-05 18:22 | 46.22285 | 14.46384 | 1230 ft | 21 kts | 126° |
| 2026-05-05 18:22 | 46.22199 | 14.46552 | 1223 ft | 23 kts | 127° |
| 2026-05-05 18:23 | 46.22106 | 14.46736 | 1217 ft | 22 kts | 127° |
| 2026-05-05 18:23 | 46.22016 | 14.46911 | 1215 ft | 22 kts | 126° |
| 2026-05-05 18:23 | 46.21928 | 14.47084 | 1212 ft | 21 kts | 126° |
| 2026-05-05 18:23 | 46.21842 | 14.47252 | 1209 ft | 20 kts | 126° |
| 2026-05-05 18:24 | 46.21758 | 14.47416 | 1207 ft | 20 kts | 126° |
| 2026-05-05 18:24 | 46.21683 | 14.47562 | 1198 ft | 15 kts | 127° |
| 2026-05-05 18:24 | 46.21593 | 14.47569 | 1196 ft | 15 kts | 216° |
| 2026-05-05 18:24 | 46.21521 | 14.47489 | 1196 ft | 14 kts | 226° |
| 2026-05-05 18:25 | 46.21533 | 14.47397 | 1199 ft | 7 kts | 305° |
| 2026-05-05 18:25 | 46.21553 | 14.47355 | 1201 ft | 14 kts | 305° |
| 2026-05-05 18:25 | 46.21875 | 14.46729 | 1222 ft | 102 kts | 306° |
| 2026-05-05 18:25 | 46.22411 | 14.45674 | 1255 ft | 157 kts | 306° |
| 2026-05-05 18:26 | 46.23096 | 14.44343 | 1765 ft | 169 kts | 305° |
| 2026-05-05 18:26 | 46.23680 | 14.42846 | 2476 ft | 174 kts | 276° |
| 2026-05-05 18:26 | 46.23363 | 14.41283 | 3342 ft | 168 kts | 230° |
| 2026-05-05 18:26 | 46.22291 | 14.40365 | 3665 ft | 198 kts | 196° |
| 2026-05-05 18:27 | 46.20876 | 14.40034 | 4007 ft | 211 kts | 192° |
| 2026-05-05 18:27 | 46.19411 | 14.39714 | 4580 ft | 214 kts | 193° |
| 2026-05-05 18:27 | 46.18004 | 14.39409 | 5113 ft | 219 kts | 193° |
| 2026-05-05 18:27 | 46.16404 | 14.39055 | 5320 ft | 246 kts | 193° |
| 2026-05-05 18:28 | 46.12886 | 14.38288 | 6629 ft | 263 kts | 193° |
| 2026-05-05 18:28 | 46.11077 | 14.37897 | 7400 ft | 264 kts | 194° |
| 2026-05-05 18:28 | 46.09249 | 14.37502 | 8062 ft | 268 kts | 194° |
| 2026-05-05 18:29 | 46.07442 | 14.36965 | 8849 ft | 262 kts | 208° |
| 2026-05-05 18:29 | 46.06001 | 14.35454 | 9600 ft | 257 kts | 231° |
| 2026-05-05 18:29 | 46.05039 | 14.33290 | 10232 ft | 260 kts | 248° |
| 2026-05-05 18:29 | 46.04335 | 14.30776 | 10431 ft | 282 kts | 250° |
| 2026-05-05 18:30 | 46.03613 | 14.28027 | 10606 ft | 304 kts | 250° |
| 2026-05-05 18:30 | 46.02848 | 14.25078 | 10743 ft | 325 kts | 250° |
| 2026-05-05 18:30 | 46.02125 | 14.22300 | 10919 ft | 341 kts | 250° |
| 2026-05-05 18:30 | 46.01276 | 14.19062 | 11334 ft | 350 kts | 250° |
| 2026-05-05 18:31 | 46.00408 | 14.15779 | 11956 ft | 353 kts | 250° |
| 2026-05-05 18:31 | 45.99530 | 14.12470 | 12585 ft | 356 kts | 250° |
| 2026-05-05 18:31 | 45.98747 | 14.09535 | 13122 ft | 360 kts | 250° |
| 2026-05-05 18:31 | 45.97899 | 14.06360 | 13683 ft | 364 kts | 250° |
| 2026-05-05 18:32 | 45.96986 | 14.02946 | 14229 ft | 368 kts | 250° |
| 2026-05-05 18:32 | 45.96059 | 13.99492 | 14821 ft | 372 kts | 250° |
| 2026-05-05 18:32 | 45.95124 | 13.96013 | 15436 ft | 374 kts | 250° |
| 2026-05-05 18:32 | 45.94182 | 13.92521 | 16103 ft | 375 kts | 249° |
| 2026-05-05 18:33 | 45.93240 | 13.89022 | 16738 ft | 378 kts | 249° |
| 2026-05-05 18:33 | 45.92298 | 13.85524 | 17171 ft | 383 kts | 249° |
| 2026-05-05 18:33 | 45.91318 | 13.81893 | 17775 ft | 386 kts | 249° |
| 2026-05-05 18:33 | 45.90357 | 13.78342 | 18388 ft | 388 kts | 249° |
| 2026-05-05 18:34 | 45.89375 | 13.74719 | 18862 ft | 391 kts | 249° |
| 2026-05-05 18:34 | 45.88384 | 13.71064 | 19331 ft | 395 kts | 249° |
| 2026-05-05 18:34 | 45.87383 | 13.67378 | 19796 ft | 398 kts | 249° |
| 2026-05-05 18:34 | 45.86371 | 13.63661 | 20271 ft | 401 kts | 249° |
| 2026-05-05 18:35 | 45.85310 | 13.59949 | 20743 ft | 404 kts | 245° |
| 2026-05-05 18:35 | 45.83902 | 13.56438 | 21192 ft | 409 kts | 236° |
| 2026-05-05 18:35 | 45.82206 | 13.53152 | 21646 ft | 412 kts | 234° |
| 2026-05-05 18:35 | 45.80492 | 13.49855 | 22069 ft | 415 kts | 234° |
| 2026-05-05 18:36 | 45.78765 | 13.46514 | 22519 ft | 417 kts | 235° |
| 2026-05-05 18:36 | 45.77046 | 13.43170 | 23036 ft | 417 kts | 235° |
| 2026-05-05 18:36 | 45.75328 | 13.39813 | 23479 ft | 419 kts | 235° |
| 2026-05-05 18:36 | 45.73606 | 13.36442 | 23794 ft | 423 kts | 235° |
| 2026-05-05 18:37 | 45.71867 | 13.33039 | 24119 ft | 425 kts | 235° |
| 2026-05-05 18:37 | 45.70115 | 13.29615 | 24476 ft | 427 kts | 235° |
| 2026-05-05 18:37 | 45.68533 | 13.26526 | 24787 ft | 428 kts | 235° |
| 2026-05-05 18:37 | 45.66793 | 13.23136 | 25108 ft | 430 kts | 235° |
| 2026-05-05 18:38 | 45.64971 | 13.19723 | 25408 ft | 433 kts | 231° |
| 2026-05-05 18:38 | 45.62870 | 13.16683 | 25733 ft | 437 kts | 223° |
| 2026-05-05 18:38 | 45.60773 | 13.14389 | 25997 ft | 441 kts | 217° |
| 2026-05-05 18:38 | 45.58316 | 13.12096 | 26358 ft | 441 kts | 216° |
| 2026-05-05 18:39 | 45.55948 | 13.09856 | 26652 ft | 442 kts | 217° |
| 2026-05-05 18:39 | 45.53899 | 13.07880 | 26874 ft | 443 kts | 217° |
| 2026-05-05 18:39 | 45.52065 | 13.06074 | 27065 ft | 444 kts | 219° |
| 2026-05-05 18:39 | 45.50281 | 13.03795 | 27271 ft | 441 kts | 232° |
| 2026-05-05 18:40 | 45.48986 | 13.01043 | 27549 ft | 438 kts | 244° |
| 2026-05-05 18:40 | 45.48198 | 12.98408 | 27864 ft | 435 kts | 252° |
| 2026-05-05 18:40 | 45.47679 | 12.95444 | 28186 ft | 434 kts | 260° |
| 2026-05-05 18:40 | 45.47471 | 12.91632 | 28587 ft | 434 kts | 270° |
| 2026-05-05 18:41 | 45.47818 | 12.87368 | 29093 ft | 433 kts | 277° |
| 2026-05-05 18:41 | 45.48382 | 12.83162 | 29568 ft | 432 kts | 279° |
| 2026-05-05 18:41 | 45.48995 | 12.78974 | 29934 ft | 432 kts | 279° |
| 2026-05-05 18:41 | 45.49615 | 12.74783 | 30256 ft | 432 kts | 279° |
| 2026-05-05 18:42 | 45.50221 | 12.70603 | 30643 ft | 430 kts | 278° |
| 2026-05-05 18:42 | 45.50809 | 12.66441 | 31087 ft | 426 kts | 278° |
| 2026-05-05 18:42 | 45.51379 | 12.62314 | 31509 ft | 423 kts | 278° |
| 2026-05-05 18:42 | 45.51936 | 12.58209 | 31865 ft | 422 kts | 278° |
| 2026-05-05 18:43 | 45.52486 | 12.54108 | 32226 ft | 420 kts | 278° |
| 2026-05-05 18:43 | 45.53028 | 12.50055 | 32823 ft | 412 kts | 277° |
| 2026-05-05 18:43 | 45.53559 | 12.46067 | 33359 ft | 407 kts | 277° |
| 2026-05-05 18:43 | 45.54084 | 12.42108 | 33687 ft | 406 kts | 277° |
| 2026-05-05 18:44 | 45.54607 | 12.38142 | 33942 ft | 407 kts | 277° |
| 2026-05-05 18:44 | 45.55128 | 12.34184 | 34202 ft | 406 kts | 277° |
| 2026-05-05 18:44 | 45.55650 | 12.30221 | 34407 ft | 407 kts | 277° |
| 2026-05-05 18:44 | 45.56171 | 12.26245 | 34573 ft | 409 kts | 277° |
| 2026-05-05 18:45 | 45.56693 | 12.22252 | 34772 ft | 409 kts | 277° |
| 2026-05-05 18:45 | 45.57214 | 12.18263 | 34996 ft | 409 kts | 277° |
| 2026-05-05 18:45 | 45.57734 | 12.14265 | 35208 ft | 410 kts | 277° |
| 2026-05-05 18:45 | 45.58255 | 12.10257 | 35391 ft | 411 kts | 277° |
| 2026-05-05 18:46 | 45.58774 | 12.06244 | 35582 ft | 412 kts | 277° |
| 2026-05-05 18:46 | 45.59293 | 12.02225 | 35777 ft | 412 kts | 277° |
| 2026-05-05 18:46 | 45.59811 | 11.98199 | 35952 ft | 413 kts | 277° |
| 2026-05-05 18:46 | 45.60329 | 11.94161 | 36129 ft | 414 kts | 277° |
| 2026-05-05 18:47 | 45.60847 | 11.90117 | 36324 ft | 414 kts | 277° |
| 2026-05-05 18:47 | 45.61363 | 11.86072 | 36509 ft | 414 kts | 277° |
| 2026-05-05 18:47 | 45.61879 | 11.82017 | 36676 ft | 415 kts | 277° |
| 2026-05-05 18:47 | 45.62395 | 11.77953 | 36870 ft | 416 kts | 277° |
| 2026-05-05 18:48 | 45.62910 | 11.73877 | 36993 ft | 418 kts | 276° |
| 2026-05-05 18:48 | 45.63427 | 11.69781 | 37136 ft | 419 kts | 276° |
| 2026-05-05 18:48 | 45.63811 | 11.65667 | 37298 ft | 417 kts | 270° |
| 2026-05-05 18:48 | 45.63872 | 11.61535 | 37476 ft | 416 kts | 268° |
| 2026-05-05 18:49 | 45.63886 | 11.57399 | 37632 ft | 416 kts | 268° |
| 2026-05-05 18:49 | 45.63916 | 11.53259 | 37779 ft | 417 kts | 268° |
| 2026-05-05 18:49 | 45.63967 | 11.49107 | 37937 ft | 418 kts | 268° |
| 2026-05-05 18:49 | 45.64024 | 11.44949 | 37991 ft | 420 kts | 268° |
| 2026-05-05 18:50 | 45.64114 | 11.36590 | 37987 ft | 420 kts | 268° |
| 2026-05-05 18:50 | 45.64191 | 11.28299 | 37987 ft | 416 kts | 268° |
| 2026-05-05 18:51 | 45.64263 | 11.20052 | 37993 ft | 414 kts | 268° |
| 2026-05-05 18:51 | 45.64335 | 11.11845 | 37993 ft | 413 kts | 268° |
| 2026-05-05 18:52 | 45.64417 | 11.03646 | 37979 ft | 414 kts | 271° |
| 2026-05-05 18:52 | 45.65443 | 10.95508 | 37992 ft | 418 kts | 279° |
| 2026-05-05 18:53 | 45.66773 | 10.87384 | 37980 ft | 421 kts | 279° |
| 2026-05-05 18:53 | 45.68080 | 10.79263 | 38000 ft | 423 kts | 279° |
| 2026-05-05 18:54 | 45.69378 | 10.71034 | 37982 ft | 425 kts | 279° |
| 2026-05-05 18:54 | 45.70669 | 10.62766 | 38032 ft | 426 kts | 278° |
| 2026-05-05 18:55 | 45.71956 | 10.54465 | 37996 ft | 428 kts | 279° |
| 2026-05-05 18:55 | 45.73238 | 10.46162 | 37986 ft | 427 kts | 278° |
| 2026-05-05 18:56 | 45.74511 | 10.37863 | 37995 ft | 427 kts | 278° |
| 2026-05-05 18:56 | 45.75777 | 10.29571 | 37980 ft | 426 kts | 278° |
| 2026-05-05 18:57 | 45.77035 | 10.21287 | 37983 ft | 426 kts | 278° |
| 2026-05-05 18:57 | 45.78289 | 10.12990 | 37975 ft | 425 kts | 278° |
| 2026-05-05 18:58 | 45.79532 | 10.04720 | 37979 ft | 425 kts | 278° |
| 2026-05-05 18:58 | 45.80761 | 9.96499 | 37976 ft | 425 kts | 278° |
| 2026-05-05 18:59 | 45.81992 | 9.88218 | 37978 ft | 425 kts | 278° |
| 2026-05-05 18:59 | 45.83220 | 9.79923 | 37989 ft | 426 kts | 277° |
| 2026-05-05 19:00 | 45.84443 | 9.71608 | 37991 ft | 425 kts | 277° |
| 2026-05-05 19:00 | 45.85660 | 9.63299 | 37941 ft | 425 kts | 278° |
| 2026-05-05 19:01 | 45.86868 | 9.55005 | 37957 ft | 424 kts | 277° |
| 2026-05-05 19:01 | 45.88065 | 9.46739 | 37988 ft | 423 kts | 277° |
| 2026-05-05 19:02 | 45.89259 | 9.38444 | 37968 ft | 425 kts | 277° |
| 2026-05-05 19:02 | 45.90452 | 9.30103 | 37975 ft | 427 kts | 277° |
| 2026-05-05 19:03 | 45.91642 | 9.21750 | 37974 ft | 426 kts | 277° |
| 2026-05-05 19:03 | 45.92812 | 9.13508 | 37981 ft | 428 kts | 276° |
| 2026-05-05 19:04 | 45.94006 | 9.05027 | 37987 ft | 427 kts | 277° |
| 2026-05-05 19:04 | 45.95180 | 8.96656 | 38004 ft | 428 kts | 276° |
| 2026-05-05 19:05 | 45.96349 | 8.88248 | 38001 ft | 430 kts | 276° |
| 2026-05-05 19:05 | 45.97517 | 8.79816 | 37998 ft | 430 kts | 276° |
| 2026-05-05 19:06 | 45.98671 | 8.71430 | 38026 ft | 431 kts | 276° |
| 2026-05-05 19:06 | 45.99830 | 8.62969 | 37997 ft | 430 kts | 276° |
| 2026-05-05 19:07 | 46.00794 | 8.55895 | 37987 ft | 430 kts | 276° |
| 2026-05-05 19:07 | 46.01937 | 8.47457 | 38004 ft | 430 kts | 276° |
| 2026-05-05 19:08 | 46.03040 | 8.39239 | 38032 ft | 430 kts | 276° |
| 2026-05-05 19:08 | 46.04173 | 8.30771 | 37983 ft | 430 kts | 276° |
| 2026-05-05 19:09 | 46.05294 | 8.22384 | 38007 ft | 429 kts | 276° |
| 2026-05-05 19:09 | 46.06409 | 8.13958 | 38011 ft | 429 kts | 276° |
| 2026-05-05 19:10 | 46.07524 | 8.05518 | 37981 ft | 429 kts | 277° |
| 2026-05-05 19:10 | 46.09533 | 7.97393 | 37968 ft | 435 kts | 290° |
| 2026-05-05 19:11 | 46.12204 | 7.89528 | 37973 ft | 440 kts | 291° |
| 2026-05-05 19:11 | 46.14906 | 7.81550 | 37941 ft | 444 kts | 291° |
| 2026-05-05 19:12 | 46.17590 | 7.73516 | 37969 ft | 446 kts | 291° |
| 2026-05-05 19:12 | 46.20278 | 7.65399 | 37951 ft | 449 kts | 290° |
| 2026-05-05 19:13 | 46.22967 | 7.57245 | 37948 ft | 450 kts | 291° |
| 2026-05-05 19:13 | 46.25649 | 7.49096 | 37932 ft | 448 kts | 290° |
| 2026-05-05 19:14 | 46.28311 | 7.40976 | 37938 ft | 446 kts | 290° |
| 2026-05-05 19:14 | 46.30956 | 7.32870 | 37934 ft | 445 kts | 290° |
| 2026-05-05 19:15 | 46.33590 | 7.24779 | 37934 ft | 444 kts | 290° |
| 2026-05-05 19:15 | 46.36213 | 7.16691 | 37947 ft | 444 kts | 291° |
| 2026-05-05 19:16 | 46.38834 | 7.08597 | 37927 ft | 444 kts | 291° |
| 2026-05-05 19:16 | 46.41446 | 7.00505 | 37900 ft | 443 kts | 291° |
| 2026-05-05 19:17 | 46.44053 | 6.92401 | 37892 ft | 444 kts | 290° |
| 2026-05-05 19:17 | 46.46655 | 6.84284 | 37912 ft | 444 kts | 291° |
| 2026-05-05 19:18 | 46.49259 | 6.76136 | 37893 ft | 446 kts | 291° |
| 2026-05-05 19:18 | 46.51845 | 6.68018 | 37895 ft | 447 kts | 291° |
| 2026-05-05 19:19 | 46.54471 | 6.59748 | 37889 ft | 448 kts | 291° |
| 2026-05-05 19:19 | 46.57078 | 6.51513 | 37892 ft | 449 kts | 291° |
| 2026-05-05 19:20 | 46.59681 | 6.43262 | 37904 ft | 450 kts | 291° |
| 2026-05-05 19:20 | 46.62283 | 6.34987 | 37901 ft | 450 kts | 291° |
| 2026-05-05 19:21 | 46.64883 | 6.26696 | 37895 ft | 450 kts | 291° |
| 2026-05-05 19:21 | 46.67459 | 6.18449 | 37899 ft | 451 kts | 291° |
| 2026-05-05 19:22 | 46.70047 | 6.10139 | 37893 ft | 451 kts | 291° |
| 2026-05-05 19:22 | 46.72633 | 6.01808 | 37900 ft | 451 kts | 291° |
| 2026-05-05 19:23 | 46.75213 | 5.93469 | 37892 ft | 452 kts | 291° |
| 2026-05-05 19:23 | 46.77790 | 5.85111 | 37884 ft | 452 kts | 291° |
| 2026-05-05 19:24 | 46.80363 | 5.76791 | 37883 ft | 453 kts | 293° |
| 2026-05-05 19:24 | 46.83988 | 5.69210 | 37873 ft | 461 kts | 312° |
| 2026-05-05 19:25 | 46.88675 | 5.62781 | 37877 ft | 463 kts | 314° |
| 2026-05-05 19:25 | 46.93427 | 5.56412 | 37866 ft | 463 kts | 314° |
| 2026-05-05 19:26 | 46.98146 | 5.49975 | 37858 ft | 464 kts | 314° |
| 2026-05-05 19:26 | 47.02847 | 5.43485 | 37854 ft | 465 kts | 314° |
| 2026-05-05 19:27 | 47.07543 | 5.36973 | 37857 ft | 465 kts | 314° |
| 2026-05-05 19:27 | 47.12250 | 5.30435 | 37859 ft | 466 kts | 314° |
| 2026-05-05 19:28 | 47.16958 | 5.23880 | 37858 ft | 466 kts | 314° |
| 2026-05-05 19:28 | 47.19281 | 5.20642 | 37834 ft | 453 kts | 314° |
| 2026-05-05 19:28 | 47.21532 | 5.17503 | 37835 ft | 439 kts | 313° |
| 2026-05-05 19:29 | 47.23715 | 5.14453 | 37769 ft | 427 kts | 313° |
| 2026-05-05 19:29 | 47.25810 | 5.11421 | 37574 ft | 415 kts | 307° |
| 2026-05-05 19:29 | 47.27528 | 5.08107 | 37628 ft | 404 kts | 302° |
| 2026-05-05 19:29 | 47.29131 | 5.04670 | 37465 ft | 413 kts | 301° |
| 2026-05-05 19:30 | 47.30770 | 5.01073 | 36882 ft | 432 kts | 301° |
| 2026-05-05 19:30 | 47.32486 | 4.97360 | 36642 ft | 444 kts | 302° |
| 2026-05-05 19:30 | 47.34261 | 4.93562 | 36350 ft | 456 kts | 302° |
| 2026-05-05 19:30 | 47.36083 | 4.89676 | 36090 ft | 466 kts | 302° |
| 2026-05-05 19:31 | 47.37911 | 4.85775 | 35735 ft | 468 kts | 302° |
| 2026-05-05 19:31 | 47.39745 | 4.81855 | 35453 ft | 460 kts | 302° |
| 2026-05-05 19:31 | 47.41547 | 4.77996 | 35203 ft | 455 kts | 302° |
| 2026-05-05 19:31 | 47.43334 | 4.74153 | 34971 ft | 454 kts | 302° |
| 2026-05-05 19:32 | 47.45118 | 4.70304 | 34725 ft | 455 kts | 301° |
| 2026-05-05 19:32 | 47.46905 | 4.66441 | 34487 ft | 456 kts | 301° |
| 2026-05-05 19:32 | 47.48693 | 4.62568 | 34260 ft | 456 kts | 301° |
| 2026-05-05 19:32 | 47.50483 | 4.58686 | 34041 ft | 457 kts | 302° |
| 2026-05-05 19:33 | 47.52273 | 4.54801 | 33808 ft | 457 kts | 302° |
| 2026-05-05 19:33 | 47.54055 | 4.50927 | 33513 ft | 458 kts | 302° |
| 2026-05-05 19:33 | 47.55894 | 4.47065 | 33264 ft | 458 kts | 304° |
| 2026-05-05 19:33 | 47.57824 | 4.43288 | 32929 ft | 460 kts | 306° |
| 2026-05-05 19:34 | 47.59797 | 4.39541 | 32532 ft | 463 kts | 306° |
| 2026-05-05 19:34 | 47.61790 | 4.35781 | 32146 ft | 465 kts | 306° |
| 2026-05-05 19:34 | 47.63783 | 4.32002 | 31768 ft | 466 kts | 306° |
| 2026-05-05 19:35 | 47.67751 | 4.24390 | 30809 ft | 465 kts | 306° |
| 2026-05-05 19:35 | 47.69709 | 4.20601 | 30192 ft | 461 kts | 306° |
| 2026-05-05 19:35 | 47.71650 | 4.16827 | 29514 ft | 459 kts | 306° |
| 2026-05-05 19:35 | 47.73582 | 4.13063 | 28739 ft | 457 kts | 306° |
| 2026-05-05 19:36 | 47.75503 | 4.09313 | 27994 ft | 455 kts | 306° |
| 2026-05-05 19:36 | 47.77417 | 4.05574 | 27274 ft | 453 kts | 306° |
| 2026-05-05 19:36 | 47.79316 | 4.01858 | 26565 ft | 450 kts | 306° |
| 2026-05-05 19:36 | 47.81203 | 3.98161 | 25813 ft | 448 kts | 306° |
| 2026-05-05 19:37 | 47.83081 | 3.94478 | 25079 ft | 445 kts | 306° |
| 2026-05-05 19:37 | 47.84947 | 3.90814 | 24405 ft | 442 kts | 305° |
| 2026-05-05 19:37 | 47.86797 | 3.87178 | 23738 ft | 439 kts | 305° |
| 2026-05-05 19:37 | 47.88634 | 3.83561 | 23022 ft | 436 kts | 305° |
| 2026-05-05 19:38 | 47.90457 | 3.79968 | 22258 ft | 433 kts | 305° |
| 2026-05-05 19:38 | 47.92264 | 3.76400 | 21506 ft | 430 kts | 305° |
| 2026-05-05 19:38 | 47.94062 | 3.72847 | 20777 ft | 428 kts | 305° |
| 2026-05-05 19:38 | 47.95849 | 3.69309 | 20065 ft | 426 kts | 305° |
| 2026-05-05 19:39 | 47.97626 | 3.65787 | 19380 ft | 423 kts | 304° |
| 2026-05-05 19:39 | 47.99388 | 3.62291 | 18699 ft | 420 kts | 304° |
| 2026-05-05 19:39 | 48.01142 | 3.58807 | 18014 ft | 417 kts | 304° |
| 2026-05-05 19:39 | 48.02877 | 3.55355 | 17268 ft | 414 kts | 304° |
| 2026-05-05 19:40 | 48.04598 | 3.51926 | 16531 ft | 411 kts | 304° |
| 2026-05-05 19:40 | 48.06308 | 3.48516 | 15814 ft | 408 kts | 304° |
| 2026-05-05 19:40 | 48.07997 | 3.45143 | 15205 ft | 402 kts | 304° |
| 2026-05-05 19:40 | 48.09663 | 3.41811 | 14611 ft | 397 kts | 304° |
| 2026-05-05 19:41 | 48.11307 | 3.38521 | 14010 ft | 393 kts | 304° |
| 2026-05-05 19:41 | 48.12908 | 3.35310 | 13403 ft | 388 kts | 304° |
| 2026-05-05 19:41 | 48.14535 | 3.32045 | 12732 ft | 384 kts | 304° |
| 2026-05-05 19:41 | 48.16125 | 3.28850 | 12086 ft | 380 kts | 304° |
| 2026-05-05 19:42 | 48.17673 | 3.25737 | 11458 ft | 376 kts | 304° |
| 2026-05-05 19:42 | 48.19228 | 3.22607 | 10910 ft | 371 kts | 304° |
| 2026-05-05 19:42 | 48.20784 | 3.19561 | 10417 ft | 365 kts | 307° |
| 2026-05-05 19:42 | 48.22516 | 3.16804 | 9979 ft | 360 kts | 312° |
| 2026-05-05 19:43 | 48.24271 | 3.14238 | 9863 ft | 344 kts | 313° |
| 2026-05-05 19:43 | 48.25936 | 3.11772 | 9820 ft | 328 kts | 311° |
| 2026-05-05 19:43 | 48.27500 | 3.09398 | 9794 ft | 312 kts | 311° |
| 2026-05-05 19:43 | 48.28976 | 3.07129 | 9808 ft | 296 kts | 310° |
| 2026-05-05 19:44 | 48.30378 | 3.04961 | 9795 ft | 284 kts | 310° |
| 2026-05-05 19:44 | 48.31661 | 3.02752 | 9804 ft | 278 kts | 298° |
| 2026-05-05 19:44 | 48.32577 | 3.00197 | 9828 ft | 279 kts | 294° |
| 2026-05-05 19:44 | 48.33404 | 2.97551 | 9830 ft | 281 kts | 292° |
| 2026-05-05 19:45 | 48.34215 | 2.94874 | 9827 ft | 282 kts | 292° |
| 2026-05-05 19:45 | 48.35023 | 2.92185 | 9826 ft | 282 kts | 292° |
| 2026-05-05 19:45 | 48.35827 | 2.89494 | 9825 ft | 282 kts | 292° |
| 2026-05-05 19:45 | 48.36626 | 2.86814 | 9812 ft | 279 kts | 292° |
| 2026-05-05 19:46 | 48.37408 | 2.84188 | 9806 ft | 271 kts | 292° |
| 2026-05-05 19:46 | 48.38170 | 2.81639 | 9816 ft | 264 kts | 292° |
| 2026-05-05 19:46 | 48.38770 | 2.79069 | 9822 ft | 258 kts | 283° |
| 2026-05-05 19:46 | 48.39228 | 2.76440 | 9830 ft | 262 kts | 282° |
| 2026-05-05 19:47 | 48.39674 | 2.73760 | 9837 ft | 266 kts | 282° |
| 2026-05-05 19:47 | 48.40119 | 2.71052 | 9830 ft | 266 kts | 282° |
| 2026-05-05 19:47 | 48.40562 | 2.68336 | 9618 ft | 270 kts | 282° |
| 2026-05-05 19:47 | 48.41007 | 2.65574 | 9371 ft | 273 kts | 282° |
| 2026-05-05 19:48 | 48.41449 | 2.62784 | 9118 ft | 274 kts | 282° |
| 2026-05-05 19:48 | 48.41885 | 2.59999 | 8846 ft | 272 kts | 282° |
| 2026-05-05 19:48 | 48.42305 | 2.57229 | 8586 ft | 271 kts | 283° |
| 2026-05-05 19:48 | 48.42670 | 2.54458 | 8327 ft | 269 kts | 282° |
| 2026-05-05 19:49 | 48.43016 | 2.51692 | 8071 ft | 268 kts | 282° |
| 2026-05-05 19:49 | 48.43237 | 2.49866 | 7899 ft | 267 kts | 282° |
| 2026-05-05 19:49 | 48.43666 | 2.46197 | 7563 ft | 265 kts | 281° |
| 2026-05-05 19:49 | 48.43989 | 2.43468 | 7313 ft | 264 kts | 281° |
| 2026-05-05 19:50 | 48.44312 | 2.40752 | 7070 ft | 263 kts | 281° |
| 2026-05-05 19:50 | 48.44630 | 2.38043 | 6827 ft | 262 kts | 282° |
| 2026-05-05 19:50 | 48.44949 | 2.35344 | 6585 ft | 261 kts | 281° |
| 2026-05-05 19:50 | 48.45270 | 2.32646 | 6338 ft | 261 kts | 282° |
| 2026-05-05 19:51 | 48.45602 | 2.29961 | 6096 ft | 262 kts | 282° |
| 2026-05-05 19:51 | 48.45927 | 2.27262 | 5826 ft | 261 kts | 282° |
| 2026-05-05 19:51 | 48.46244 | 2.24579 | 5533 ft | 260 kts | 281° |
| 2026-05-05 19:51 | 48.46563 | 2.21914 | 5315 ft | 257 kts | 282° |
| 2026-05-05 19:52 | 48.46877 | 2.19267 | 5048 ft | 257 kts | 282° |
| 2026-05-05 19:52 | 48.47081 | 2.17514 | 4887 ft | 256 kts | 282° |
| 2026-05-05 19:52 | 48.47397 | 2.14880 | 4619 ft | 255 kts | 287° |
| 2026-05-05 19:52 | 48.48065 | 2.12427 | 4355 ft | 253 kts | 300° |
| 2026-05-05 19:53 | 48.48889 | 2.10084 | 4119 ft | 253 kts | 301° |
| 2026-05-05 19:53 | 48.49728 | 2.07755 | 4047 ft | 252 kts | 301° |
| 2026-05-05 19:53 | 48.50837 | 2.04687 | 4014 ft | 251 kts | 302° |
| 2026-05-05 19:53 | 48.51674 | 2.02370 | 4007 ft | 252 kts | 302° |
| 2026-05-05 19:54 | 48.52241 | 2.00799 | 4010 ft | 253 kts | 302° |
| 2026-05-05 19:54 | 48.53087 | 1.98460 | 4007 ft | 254 kts | 302° |
| 2026-05-05 19:54 | 48.53956 | 1.96159 | 3993 ft | 251 kts | 309° |
| 2026-05-05 19:54 | 48.55254 | 1.94527 | 4006 ft | 241 kts | 339° |
| 2026-05-05 19:55 | 48.56876 | 1.94160 | 4005 ft | 237 kts | 10° |
| 2026-05-05 19:55 | 48.58364 | 1.95125 | 4009 ft | 236 kts | 38° |
| 2026-05-05 19:55 | 48.59539 | 1.96820 | 3997 ft | 229 kts | 49° |
| 2026-05-05 19:55 | 48.60415 | 1.98718 | 4008 ft | 214 kts | 57° |
| 2026-05-05 19:56 | 48.61114 | 2.00612 | 3981 ft | 201 kts | 59° |
| 2026-05-05 19:56 | 48.61768 | 2.02476 | 4009 ft | 204 kts | 59° |
| 2026-05-05 19:56 | 48.62433 | 2.04383 | 4014 ft | 210 kts | 60° |
| 2026-05-05 19:56 | 48.63115 | 2.06340 | 3989 ft | 211 kts | 60° |
| 2026-05-05 19:57 | 48.63799 | 2.08299 | 3802 ft | 209 kts | 60° |
| 2026-05-05 19:57 | 48.64468 | 2.10215 | 3537 ft | 203 kts | 59° |
| 2026-05-05 19:57 | 48.65116 | 2.12067 | 3261 ft | 195 kts | 59° |
| 2026-05-05 19:57 | 48.65735 | 2.13838 | 3003 ft | 186 kts | 58° |
| 2026-05-05 19:58 | 48.66331 | 2.15545 | 2748 ft | 182 kts | 59° |
| 2026-05-05 19:58 | 48.66908 | 2.17193 | 2516 ft | 172 kts | 58° |
| 2026-05-05 19:58 | 48.67450 | 2.18728 | 2317 ft | 158 kts | 59° |
| 2026-05-05 19:58 | 48.67944 | 2.20142 | 2104 ft | 146 kts | 57° |
| 2026-05-05 19:59 | 48.68411 | 2.21470 | 1910 ft | 142 kts | 56° |
| 2026-05-05 19:59 | 48.68868 | 2.22771 | 1724 ft | 138 kts | 57° |
| 2026-05-05 19:59 | 48.69312 | 2.24034 | 1521 ft | 134 kts | 58° |
| 2026-05-05 19:59 | 48.69756 | 2.25299 | 1364 ft | 140 kts | 58° |
| 2026-05-05 20:00 | 48.70224 | 2.26629 | 1145 ft | 144 kts | 59° |
| 2026-05-05 20:00 | 48.70690 | 2.27957 | 940 ft | 144 kts | 57° |
| 2026-05-05 20:00 | 48.71154 | 2.29275 | 750 ft | 141 kts | 58° |
| 2026-05-05 20:00 | 48.71614 | 2.30589 | 565 ft | 142 kts | 57° |
| 2026-05-05 20:01 | 48.72084 | 2.31918 | 368 ft | 144 kts | 61° |
| 2026-05-05 20:01 | 48.72534 | 2.33196 | 288 ft | 125 kts | 64° |
| 2026-05-05 20:01 | 48.72861 | 2.34133 | 288 ft | 81 kts | 62° |
| 2026-05-05 20:01 | 48.73002 | 2.34667 | 284 ft | 36 kts | 82° |
| 2026-05-05 20:02 | 48.73025 | 2.34931 | 286 ft | 20 kts | 81° |
| 2026-05-05 20:02 | 48.73041 | 2.35132 | 285 ft | 19 kts | 98° |
| 2026-05-05 20:02 | 48.72969 | 2.35288 | 286 ft | 18 kts | 148° |
| 2026-05-05 20:02 | 48.72848 | 2.35300 | 286 ft | 18 kts | 198° |
| 2026-05-05 20:03 | 48.72731 | 2.35256 | 285 ft | 17 kts | 184° |
| 2026-05-05 20:03 | 48.72617 | 2.35290 | 289 ft | 16 kts | 164° |
| 2026-05-05 20:03 | 48.72518 | 2.35333 | 288 ft | 16 kts | 164° |
| 2026-05-05 20:03 | 48.72414 | 2.35381 | 285 ft | 15 kts | 158° |
| 2026-05-05 20:04 | 48.72355 | 2.35433 | 289 ft | 8 kts | 137° |
| 2026-05-05 20:04 | 48.72332 | 2.35480 | 289 ft | 0 kts | 120° |
| 2026-05-05 20:06 | 48.72328 | 2.35491 | 285 ft | 3 kts | 120° |
| 2026-05-05 20:06 | 48.72315 | 2.35527 | 289 ft | 4 kts | 116° |
| 2026-05-05 20:07 | 48.72307 | 2.35581 | 285 ft | 7 kts | 86° |
| 2026-05-05 20:07 | 48.72320 | 2.35670 | 289 ft | 11 kts | 75° |
| 2026-05-05 20:07 | 48.72342 | 2.35790 | 285 ft | 14 kts | 74° |
| 2026-05-05 20:07 | 48.72370 | 2.35942 | 288 ft | 15 kts | 75° |
| 2026-05-05 20:08 | 48.72398 | 2.36092 | 285 ft | 14 kts | 74° |
| 2026-05-05 20:08 | 48.72424 | 2.36235 | 287 ft | 14 kts | 75° |
| 2026-05-05 20:08 | 48.72449 | 2.36372 | 289 ft | 13 kts | 74° |
| 2026-05-05 20:08 | 48.72473 | 2.36504 | 285 ft | 13 kts | 75° |
| 2026-05-05 20:09 | 48.72496 | 2.36632 | 288 ft | 12 kts | 74° |
| 2026-05-05 20:09 | 48.72502 | 2.36727 | 292 ft | 4 kts | 151° |
| 2026-05-05 20:09 | 48.72475 | 2.36714 | 290 ft | 4 kts | 202° |
| 2026-05-05 20:09 | 48.72450 | 2.36700 | 287 ft | 4 kts | 201° |
| 2026-05-05 20:10 | 48.72434 | 2.36690 | 291 ft | 0 kts | 201° |